La rose des vents
Donnes mto: Semaine 31/12/07 - 06/01/08 (S 1)
Date Horaire Temp. E. Hum. E. P.atmo. Pluie Vent 1mn Direction Ensoleilleme Ev.Tr. Solaire P. de rose Temp au vent Rafales
31/12/2007 00:00 5,9 C 62 % 1017,9 hPa 0,0 l/m 9,8 km/h (2 Bft) O-NO 0,00 h 0,025 mm 0 W/m -0,8 C 3,9 C 14,3 km/h (3 Bft)
31/12/2007 01:00 6,2 C 56 % 1017,5 hPa 0,0 l/m 10,1 km/h (2 Bft) O-NO 0,00 h 0,051 mm 0 W/m -2,0 C 4,2 C 14,1 km/h (3 Bft)
31/12/2007 02:00 6,2 C 51 % 1017,8 hPa 0,0 l/m 6,2 km/h (2 Bft) NO 0,00 h 0,051 mm 0 W/m -3,1 C 5,1 C 8,8 km/h (2 Bft)
31/12/2007 03:00 6,2 C 47 % 1018,0 hPa 0,0 l/m 5,3 km/h (1 Bft) O-NO 0,00 h 0,051 mm 0 W/m -4,1 C 5,4 C 8,2 km/h (2 Bft)
31/12/2007 04:00 6,2 C 45 % 1018,1 hPa 0,0 l/m 11,5 km/h (2 Bft) O-NO 0,00 h 0,051 mm 0 W/m -4,9 C 3,9 C 15,3 km/h (3 Bft)
31/12/2007 05:00 6,5 C 42 % 1018,2 hPa 0,0 l/m 13,4 km/h (3 Bft) O-NO 0,00 h 0,076 mm 0 W/m -5,4 C 3,8 C 17,8 km/h (3 Bft)
31/12/2007 06:00 5,8 C 44 % 1018,8 hPa 0,0 l/m 5,7 km/h (1 Bft) NO 0,00 h 0,102 mm 0 W/m -5,5 C 4,8 C 9,2 km/h (2 Bft)
31/12/2007 07:00 5,4 C 44 % 1019,4 hPa 0,0 l/m 4,9 km/h (1 Bft) O-NO 0,00 h 0,051 mm 0 W/m -5,8 C 4,7 C 6,8 km/h (2 Bft)
31/12/2007 08:00 6,7 C 39 % 1020,0 hPa 0,0 l/m 4,7 km/h (1 Bft) O 0,72 h 0,025 mm 41 W/m -6,4 C 6,0 C 6,4 km/h (2 Bft)
31/12/2007 09:00 9,3 C 34 % 1020,5 hPa 0,0 l/m 4,2 km/h (1 Bft) O 1,00 h 0,051 mm 164 W/m -5,8 C 9,0 C 6,1 km/h (2 Bft)
31/12/2007 10:00 10,9 C 36 % 1020,8 hPa 0,0 l/m 0,7 km/h (0 Bft) O 1,00 h 0,102 mm 278 W/m -3,6 C 10,9 C 1,5 km/h (1 Bft)
31/12/2007 11:00 12,5 C 37 % 1020,7 hPa 0,0 l/m 1,8 km/h (1 Bft) S 1,00 h 0,152 mm 355 W/m -1,9 C 12,5 C 3,6 km/h (1 Bft)
31/12/2007 12:00 13,3 C 32 % 1020,4 hPa 0,0 l/m 5,7 km/h (1 Bft) S-SO 1,00 h 0,203 mm 386 W/m -3,1 C 13,3 C 8,8 km/h (2 Bft)
31/12/2007 13:00 13,5 C 31 % 1019,8 hPa 0,0 l/m 9,8 km/h (2 Bft) S-SO 1,00 h 0,254 mm 366 W/m -3,3 C 13,5 C 14,1 km/h (3 Bft)
31/12/2007 14:00 13,5 C 31 % 1019,3 hPa 0,0 l/m 11,3 km/h (2 Bft) SO 1,00 h 0,279 mm 291 W/m -3,1 C 13,5 C 15,7 km/h (3 Bft)
31/12/2007 15:00 13,3 C 33 % 1019,0 hPa 0,0 l/m 10,2 km/h (2 Bft) S-SO 1,00 h 0,254 mm 187 W/m -2,9 C 13,3 C 14,0 km/h (3 Bft)
31/12/2007 16:00 11,0 C 42 % 1019,3 hPa 0,0 l/m 14,5 km/h (3 Bft) SO 0,62 h 0,178 mm 49 W/m -1,3 C 11,0 C 17,9 km/h (3 Bft)
31/12/2007 17:00 9,1 C 47 % 1019,4 hPa 0,0 l/m 5,1 km/h (1 Bft) O-SO 0,00 h 0,127 mm 6 W/m -1,6 C 8,6 C 7,3 km/h (2 Bft)
31/12/2007 18:00 8,0 C 52 % 1019,8 hPa 0,0 l/m 4,3 km/h (1 Bft) O-NO 0,00 h 0,025 mm 0 W/m -1,3 C 7,6 C 5,9 km/h (2 Bft)
31/12/2007 19:00 7,0 C 55 % 1019,8 hPa 0,0 l/m 2,3 km/h (1 Bft) O-NO 0,00 h 0,051 mm 0 W/m -1,5 C 6,9 C 4,2 km/h (1 Bft)
31/12/2007 20:00 6,4 C 57 % 1019,9 hPa 0,0 l/m 2,6 km/h (1 Bft) N 0,00 h 0,025 mm 0 W/m -1,6 C 6,4 C 4,5 km/h (1 Bft)
31/12/2007 21:00 6,2 C 56 % 1020,0 hPa 0,0 l/m 2,8 km/h (1 Bft) N 0,00 h 0,025 mm 0 W/m -1,9 C 6,1 C 4,6 km/h (1 Bft)
31/12/2007 22:00 5,6 C 56 % 1019,7 hPa 0,0 l/m 3,7 km/h (1 Bft) N-NO 0,00 h 0,025 mm 0 W/m -2,5 C 5,2 C 5,6 km/h (1 Bft)
31/12/2007 23:00 5,6 C 53 % 1019,9 hPa 0,0 l/m 2,8 km/h (1 Bft) N 0,00 h 0,102 mm 0 W/m -3,2 C 5,4 C 5,0 km/h (1 Bft)
01/01/2008 00:00 5,5 C 54 % 1019,5 hPa 0,0 l/m 3,1 km/h (1 Bft) N 0,00 h 0,000 mm 0 W/m -3,2 C 5,2 C 5,1 km/h (1 Bft)
01/01/2008 01:00 5,6 C 50 % 1019,2 hPa 0,0 l/m 2,5 km/h (1 Bft) N 0,00 h 0,051 mm 0 W/m -4,1 C 5,5 C 3,9 km/h (1 Bft)
01/01/2008 02:00 5,3 C 48 % 1019,1 hPa 0,0 l/m 2,7 km/h (1 Bft) N 0,00 h 0,051 mm 0 W/m -4,7 C 5,2 C 4,6 km/h (1 Bft)
01/01/2008 03:00 4,7 C 51 % 1019,1 hPa 0,0 l/m 3,4 km/h (1 Bft) N 0,00 h 0,051 mm 0 W/m -4,6 C 4,5 C 5,7 km/h (1 Bft)
01/01/2008 04:00 5,2 C 51 % 1018,6 hPa 0,0 l/m 5,4 km/h (1 Bft) N-NO 0,00 h 0,051 mm 0 W/m -4,1 C 4,2 C 7,5 km/h (2 Bft)
01/01/2008 05:00 5,6 C 55 % 1018,6 hPa 0,0 l/m 5,1 km/h (1 Bft) NO 0,00 h 0,051 mm 0 W/m -2,8 C 4,8 C 7,3 km/h (2 Bft)
01/01/2008 06:00 5,6 C 60 % 1018,8 hPa 0,0 l/m 5,5 km/h (1 Bft) NO 0,00 h 0,051 mm 0 W/m -1,5 C 4,6 C 7,5 km/h (2 Bft)
01/01/2008 07:00 5,3 C 61 % 1018,9 hPa 0,0 l/m 4,9 km/h (1 Bft) NO 0,00 h 0,051 mm 0 W/m -1,6 C 4,5 C 7,0 km/h (2 Bft)
01/01/2008 08:00 5,6 C 58 % 1018,9 hPa 0,0 l/m 5,0 km/h (1 Bft) N-NO 0,43 h 0,025 mm 35 W/m -1,9 C 4,8 C 7,0 km/h (2 Bft)
01/01/2008 09:00 7,6 C 54 % 1019,0 hPa 0,0 l/m 2,5 km/h (1 Bft) N-NO 0,92 h 0,051 mm 146 W/m -1,2 C 7,4 C 4,9 km/h (1 Bft)
01/01/2008 10:00 9,6 C 55 % 1019,2 hPa 0,0 l/m 3,7 km/h (1 Bft) N-NE 1,00 h 0,076 mm 277 W/m 1,0 C 9,6 C 6,7 km/h (2 Bft)
01/01/2008 11:00 10,9 C 56 % 1019,0 hPa 0,0 l/m 7,5 km/h (2 Bft) NE 1,00 h 0,152 mm 354 W/m 2,4 C 10,9 C 11,8 km/h (2 Bft)
01/01/2008 12:00 11,3 C 57 % 1018,4 hPa 0,0 l/m 8,5 km/h (2 Bft) E-NE 1,00 h 0,203 mm 373 W/m 3,0 C 11,3 C 12,3 km/h (3 Bft)
01/01/2008 13:00 11,6 C 58 % 1017,7 hPa 0,0 l/m 10,9 km/h (2 Bft) E 0,97 h 0,229 mm 345 W/m 3,7 C 11,6 C 15,5 km/h (3 Bft)
01/01/2008 14:00 11,3 C 59 % 1017,1 hPa 0,0 l/m 10,7 km/h (2 Bft) E-NE 0,67 h 0,229 mm 275 W/m 3,7 C 11,3 C 16,4 km/h (3 Bft)
01/01/2008 15:00 9,2 C 68 % 1017,2 hPa 0,0 l/m 7,2 km/h (2 Bft) E-NE 0,00 h 0,178 mm 54 W/m 3,6 C 8,3 C 10,9 km/h (2 Bft)
01/01/2008 16:00 8,6 C 70 % 1017,4 hPa 0,0 l/m 3,9 km/h (1 Bft) E-NE 0,00 h 0,051 mm 27 W/m 3,5 C 8,3 C 6,1 km/h (2 Bft)
01/01/2008 17:00 7,5 C 72 % 1017,5 hPa 0,0 l/m 1,8 km/h (1 Bft) NE 0,00 h 0,025 mm 5 W/m 2,9 C 7,5 C 3,3 km/h (1 Bft)
01/01/2008 18:00 7,2 C 74 % 1017,7 hPa 0,0 l/m 1,0 km/h (0 Bft) NE 0,00 h 0,000 mm 0 W/m 2,9 C 7,2 C 2,4 km/h (1 Bft)
01/01/2008 19:00 6,9 C 75 % 1017,9 hPa 0,0 l/m 2,9 km/h (1 Bft) NE 0,00 h 0,025 mm 0 W/m 2,7 C 6,7 C 5,0 km/h (1 Bft)
01/01/2008 20:00 6,8 C 75 % 1018,0 hPa 0,0 l/m 4,0 km/h (1 Bft) N-NE 0,00 h 0,025 mm 0 W/m 2,6 C 6,5 C 6,7 km/h (2 Bft)
01/01/2008 21:00 7,2 C 72 % 1017,9 hPa 0,0 l/m 5,8 km/h (2 Bft) N-NE 0,00 h 0,025 mm 0 W/m 2,6 C 6,4 C 8,8 km/h (2 Bft)
01/01/2008 22:00 7,4 C 71 % 1017,8 hPa 0,0 l/m 6,1 km/h (2 Bft) N-NE 0,00 h 0,025 mm 0 W/m 2,4 C 6,5 C 9,2 km/h (2 Bft)
01/01/2008 23:00 7,4 C 68 % 1017,8 hPa 0,0 l/m 7,0 km/h (2 Bft) N-NE 0,00 h 0,025 mm 0 W/m 1,9 C 6,2 C 10,8 km/h (2 Bft)
02/01/2008 00:00 7,0 C 68 % 1017,7 hPa 0,0 l/m 5,2 km/h (1 Bft) N-NE 0,00 h 0,051 mm 0 W/m 1,5 C 6,4 C 7,6 km/h (2 Bft)
02/01/2008 01:00 6,7 C 69 % 1017,2 hPa 0,0 l/m 6,4 km/h (2 Bft) N-NE 0,00 h 0,025 mm 0 W/m 1,4 C 5,6 C 9,4 km/h (2 Bft)
02/01/2008 02:00 7,1 C 69 % 1017,1 hPa 0,0 l/m 9,3 km/h (2 Bft) NE 0,00 h 0,025 mm 0 W/m 1,9 C 5,4 C 13,4 km/h (3 Bft)
02/01/2008 03:00 7,0 C 75 % 1017,3 hPa 0,0 l/m 8,6 km/h (2 Bft) NE 0,00 h 0,051 mm 0 W/m 2,8 C 5,4 C 12,9 km/h (3 Bft)
02/01/2008 04:00 6,9 C 74 % 1017,0 hPa 0,0 l/m 5,7 km/h (1 Bft) N-NE 0,00 h 0,025 mm 0 W/m 2,7 C 6,1 C 8,9 km/h (2 Bft)
02/01/2008 05:00 6,8 C 72 % 1016,8 hPa 0,0 l/m 5,5 km/h (1 Bft) N-NE 0,00 h 0,025 mm 0 W/m 2,1 C 6,0 C 7,9 km/h (2 Bft)
02/01/2008 06:00 7,1 C 70 % 1016,8 hPa 0,0 l/m 7,3 km/h (2 Bft) NE 0,00 h 0,025 mm 0 W/m 2,0 C 5,9 C 10,8 km/h (2 Bft)
02/01/2008 07:00 6,9 C 71 % 1017,0 hPa 0,0 l/m 5,4 km/h (1 Bft) NE 0,00 h 0,051 mm 0 W/m 1,9 C 6,1 C 7,8 km/h (2 Bft)
02/01/2008 08:00 6,9 C 71 % 1017,1 hPa 0,0 l/m 8,4 km/h (2 Bft) NE 0,00 h 0,025 mm 12 W/m 2,0 C 5,3 C 12,4 km/h (3 Bft)
02/01/2008 09:00 7,0 C 71 % 1017,1 hPa 0,0 l/m 7,6 km/h (2 Bft) NE 0,00 h 0,025 mm 26 W/m 2,1 C 5,6 C 11,3 km/h (2 Bft)
02/01/2008 10:00 7,2 C 70 % 1017,4 hPa 0,0 l/m 8,2 km/h (2 Bft) NE 0,00 h 0,051 mm 43 W/m 2,1 C 5,7 C 12,4 km/h (3 Bft)
02/01/2008 11:00 7,1 C 70 % 1017,3 hPa 0,0 l/m 9,3 km/h (2 Bft) NE 0,00 h 0,051 mm 36 W/m 2,0 C 5,4 C 13,7 km/h (3 Bft)
02/01/2008 12:00 7,3 C 67 % 1016,5 hPa 0,0 l/m 11,0 km/h (2 Bft) NE 0,13 h 0,051 mm 111 W/m 1,6 C 5,2 C 16,5 km/h (3 Bft)
02/01/2008 13:00 7,7 C 63 % 1015,5 hPa 0,0 l/m 14,4 km/h (3 Bft) E-NE 0,00 h 0,076 mm 91 W/m 1,2 C 5,2 C 19,9 km/h (4 Bft)
02/01/2008 14:00 7,2 C 65 % 1015,0 hPa 0,0 l/m 18,0 km/h (3 Bft) E-NE 0,00 h 0,102 mm 57 W/m 1,1 C 4,1 C 24,8 km/h (4 Bft)
02/01/2008 15:00 7,2 C 66 % 1014,7 hPa 0,0 l/m 20,0 km/h (4 Bft) E-NE 0,00 h 0,102 mm 64 W/m 1,3 C 3,9 C 27,5 km/h (4 Bft)
02/01/2008 16:00 6,8 C 68 % 1014,7 hPa 0,0 l/m 18,2 km/h (3 Bft) E-NE 0,00 h 0,102 mm 16 W/m 1,3 C 3,6 C 25,7 km/h (4 Bft)
02/01/2008 17:00 6,4 C 68 % 1014,7 hPa 0,0 l/m 21,7 km/h (4 Bft) E-NE 0,00 h 0,076 mm 0 W/m 0,9 C 2,7 C 29,9 km/h (5 Bft)
02/01/2008 18:00 6,3 C 67 % 1014,7 hPa 0,0 l/m 19,6 km/h (3 Bft) E-NE 0,00 h 0,076 mm 0 W/m 0,7 C 2,8 C 26,7 km/h (4 Bft)
02/01/2008 19:00 6,2 C 66 % 1014,4 hPa 0,0 l/m 16,2 km/h (3 Bft) NE 0,00 h 0,076 mm 0 W/m 0,3 C 3,1 C 22,6 km/h (4 Bft)
02/01/2008 20:00 6,0 C 65 % 1013,6 hPa 0,0 l/m 9,4 km/h (2 Bft) NE 0,00 h 0,051 mm 0 W/m -0,0 C 4,1 C 14,3 km/h (3 Bft)
02/01/2008 21:00 5,8 C 66 % 1013,2 hPa 0,0 l/m 7,8 km/h (2 Bft) NE 0,00 h 0,051 mm 0 W/m -0,0 C 4,2 C 11,5 km/h (2 Bft)
02/01/2008 22:00 5,3 C 74 % 1012,9 hPa 0,4 l/m 15,3 km/h (3 Bft) E-NE 0,00 h 0,051 mm 0 W/m 1,0 C 2,1 C 21,4 km/h (4 Bft)
02/01/2008 23:00 4,2 C 85 % 1012,8 hPa 1,2 l/m 14,0 km/h (3 Bft) NE 0,00 h 0,051 mm 0 W/m 1,9 C 1,0 C 20,0 km/h (4 Bft)
03/01/2008 00:00 3,6 C 89 % 1012,2 hPa 0,8 l/m 11,6 km/h (2 Bft) NE 0,00 h 0,025 mm 0 W/m 2,0 C 0,8 C 17,6 km/h (3 Bft)
03/01/2008 01:00 3,1 C 91 % 1011,3 hPa 1,6 l/m 6,9 km/h (2 Bft) N 0,00 h 0,025 mm 0 W/m 1,8 C 1,3 C 10,9 km/h (2 Bft)
03/01/2008 02:00 2,9 C 92 % 1010,5 hPa 1,4 l/m 10,1 km/h (2 Bft) N-NE 0,00 h 0,025 mm 0 W/m 1,8 C 0,2 C 15,0 km/h (3 Bft)
03/01/2008 03:00 3,1 C 93 % 1009,7 hPa 0,0 l/m 10,8 km/h (2 Bft) N-NE 0,00 h 0,025 mm 0 W/m 2,1 C 0,2 C 16,6 km/h (3 Bft)
03/01/2008 04:00 3,3 C 93 % 1009,1 hPa 1,6 l/m 11,2 km/h (2 Bft) N-NE 0,00 h 0,025 mm 0 W/m 2,3 C 0,4 C 17,8 km/h (3 Bft)
03/01/2008 05:00 3,4 C 94 % 1008,8 hPa 1,0 l/m 11,3 km/h (2 Bft) N-NE 0,00 h 0,025 mm 0 W/m 2,5 C 0,5 C 18,2 km/h (3 Bft)
03/01/2008 06:00 3,5 C 94 % 1008,5 hPa 0,0 l/m 10,2 km/h (2 Bft) N-NE 0,00 h 0,025 mm 0 W/m 2,6 C 0,9 C 16,1 km/h (3 Bft)
03/01/2008 07:00 4,0 C 94 % 1008,1 hPa 0,0 l/m 11,1 km/h (2 Bft) N-NE 0,00 h 0,025 mm 0 W/m 3,1 C 1,2 C 17,0 km/h (3 Bft)
03/01/2008 08:00 4,5 C 92 % 1008,2 hPa 0,0 l/m 7,0 km/h (2 Bft) N-NE 0,00 h 0,000 mm 6 W/m 3,4 C 2,9 C 10,5 km/h (2 Bft)
03/01/2008 09:00 4,8 C 92 % 1008,1 hPa 0,2 l/m 5,5 km/h (1 Bft) N 0,00 h 0,000 mm 14 W/m 3,6 C 3,7 C 8,6 km/h (2 Bft)
03/01/2008 10:00 5,2 C 91 % 1008,2 hPa 0,2 l/m 7,5 km/h (2 Bft) N 0,00 h 0,025 mm 32 W/m 3,9 C 3,6 C 12,2 km/h (2 Bft)
03/01/2008 11:00 5,8 C 91 % 1008,4 hPa 0,2 l/m 8,7 km/h (2 Bft) N 0,00 h 0,025 mm 42 W/m 4,4 C 3,9 C 13,8 km/h (3 Bft)
03/01/2008 12:00 5,9 C 90 % 1008,1 hPa 0,4 l/m 8,9 km/h (2 Bft) N-NE 0,00 h 0,025 mm 36 W/m 4,4 C 4,0 C 13,8 km/h (3 Bft)
03/01/2008 13:00 5,9 C 91 % 1007,6 hPa 0,4 l/m 7,2 km/h (2 Bft) N-NE 0,00 h 0,025 mm 49 W/m 4,5 C 4,5 C 11,4 km/h (2 Bft)
03/01/2008 14:00 6,1 C 91 % 1007,0 hPa 0,8 l/m 8,8 km/h (2 Bft) N-NE 0,00 h 0,025 mm 36 W/m 4,7 C 4,2 C 13,7 km/h (3 Bft)
03/01/2008 15:00 5,9 C 92 % 1007,0 hPa 0,0 l/m 9,0 km/h (2 Bft) N-NE 0,00 h 0,025 mm 13 W/m 4,6 C 4,0 C 14,6 km/h (3 Bft)
03/01/2008 16:00 5,9 C 91 % 1007,2 hPa 0,2 l/m 11,5 km/h (2 Bft) N-NE 0,00 h 0,025 mm 8 W/m 4,6 C 3,5 C 18,5 km/h (3 Bft)
03/01/2008 17:00 5,7 C 91 % 1007,8 hPa 0,4 l/m 10,8 km/h (2 Bft) N-NE 0,00 h 0,025 mm 0 W/m 4,3 C 3,3 C 16,2 km/h (3 Bft)
03/01/2008 18:00 5,6 C 91 % 1007,9 hPa 0,0 l/m 11,7 km/h (2 Bft) N-NE 0,00 h 0,025 mm 0 W/m 4,3 C 3,0 C 17,8 km/h (3 Bft)
03/01/2008 19:00 5,9 C 90 % 1007,7 hPa 0,0 l/m 11,1 km/h (2 Bft) N-NE 0,00 h 0,025 mm 0 W/m 4,4 C 3,6 C 16,8 km/h (3 Bft)
03/01/2008 20:00 6,4 C 85 % 1007,7 hPa 0,0 l/m 11,1 km/h (2 Bft) N-NE 0,00 h 0,025 mm 0 W/m 4,0 C 4,1 C 17,1 km/h (3 Bft)
03/01/2008 21:00 7,2 C 78 % 1007,5 hPa 0,0 l/m 11,6 km/h (2 Bft) N-NE 0,00 h 0,025 mm 0 W/m 3,6 C 5,0 C 17,7 km/h (3 Bft)
03/01/2008 22:00 7,7 C 75 % 1007,2 hPa 0,0 l/m 14,9 km/h (3 Bft) N-NE 0,00 h 0,025 mm 0 W/m 3,5 C 5,1 C 22,8 km/h (4 Bft)
03/01/2008 23:00 8,1 C 72 % 1007,5 hPa 0,0 l/m 14,1 km/h (3 Bft) N-NE 0,00 h 0,051 mm 0 W/m 3,3 C 5,7 C 20,7 km/h (4 Bft)
04/01/2008 00:00 8,1 C 73 % 1007,9 hPa 0,2 l/m 11,9 km/h (2 Bft) N-NE 0,00 h 0,051 mm 0 W/m 3,4 C 6,0 C 18,6 km/h (3 Bft)
04/01/2008 01:00 8,4 C 71 % 1007,8 hPa 0,2 l/m 11,9 km/h (2 Bft) N-NE 0,00 h 0,051 mm 0 W/m 3,4 C 6,5 C 18,2 km/h (3 Bft)
04/01/2008 02:00 7,8 C 79 % 1008,2 hPa 2,2 l/m 9,0 km/h (2 Bft) N-NE 0,00 h 0,051 mm 0 W/m 4,4 C 6,2 C 13,9 km/h (3 Bft)
04/01/2008 03:00 7,0 C 88 % 1008,6 hPa 1,6 l/m 9,2 km/h (2 Bft) N-NE 0,00 h 0,025 mm 0 W/m 5,1 C 5,3 C 14,3 km/h (3 Bft)
04/01/2008 04:00 6,8 C 91 % 1009,1 hPa 3,0 l/m 10,3 km/h (2 Bft) N-NE 0,00 h 0,025 mm 0 W/m 5,4 C 4,8 C 15,9 km/h (3 Bft)
04/01/2008 05:00 6,8 C 92 % 1009,0 hPa 2,0 l/m 12,8 km/h (3 Bft) N-NE 0,00 h 0,025 mm 0 W/m 5,6 C 4,3 C 20,0 km/h (4 Bft)
04/01/2008 06:00 6,8 C 93 % 1008,8 hPa 1,4 l/m 14,5 km/h (3 Bft) N-NE 0,00 h 0,025 mm 0 W/m 5,7 C 4,1 C 22,1 km/h (4 Bft)
04/01/2008 07:00 6,8 C 93 % 1009,3 hPa 2,2 l/m 13,0 km/h (3 Bft) N-NE 0,00 h 0,025 mm 0 W/m 5,7 C 4,3 C 19,9 km/h (4 Bft)
04/01/2008 08:00 6,9 C 93 % 1009,8 hPa 2,2 l/m 14,3 km/h (3 Bft) N-NE 0,00 h 0,025 mm 5 W/m 5,8 C 4,2 C 21,2 km/h (4 Bft)
04/01/2008 09:00 6,9 C 94 % 1010,5 hPa 2,6 l/m 15,3 km/h (3 Bft) N-NE 0,00 h 0,025 mm 13 W/m 5,9 C 4,0 C 23,5 km/h (4 Bft)
04/01/2008 10:00 7,1 C 94 % 1011,1 hPa 2,2 l/m 14,6 km/h (3 Bft) N-NE 0,00 h 0,025 mm 20 W/m 6,2 C 4,4 C 22,1 km/h (4 Bft)
04/01/2008 11:00 7,2 C 94 % 1011,6 hPa 3,0 l/m 15,9 km/h (3 Bft) N-NE 0,00 h 0,025 mm 34 W/m 6,3 C 4,4 C 24,0 km/h (4 Bft)
04/01/2008 12:00 7,3 C 94 % 1011,6 hPa 2,4 l/m 17,7 km/h (3 Bft) N-NE 0,00 h 0,025 mm 55 W/m 6,3 C 4,2 C 26,0 km/h (4 Bft)
04/01/2008 13:00 7,4 C 93 % 1011,4 hPa 1,2 l/m 16,9 km/h (3 Bft) N-NE 0,00 h 0,051 mm 43 W/m 6,3 C 4,5 C 26,5 km/h (4 Bft)
04/01/2008 14:00 7,4 C 93 % 1011,3 hPa 1,4 l/m 16,8 km/h (3 Bft) N-NE 0,00 h 0,051 mm 40 W/m 6,4 C 4,5 C 25,9 km/h (4 Bft)
04/01/2008 15:00 7,6 C 93 % 1011,6 hPa 1,6 l/m 14,7 km/h (3 Bft) N-NE 0,00 h 0,051 mm 18 W/m 6,5 C 5,0 C 22,8 km/h (4 Bft)
04/01/2008 16:00 7,5 C 93 % 1012,2 hPa 1,2 l/m 10,6 km/h (2 Bft) N-NE 0,00 h 0,025 mm 6 W/m 6,5 C 5,6 C 15,9 km/h (3 Bft)
04/01/2008 17:00 7,3 C 93 % 1013,0 hPa 0,8 l/m 11,1 km/h (2 Bft) N-NE 0,00 h 0,025 mm 0 W/m 6,2 C 5,2 C 17,8 km/h (3 Bft)
04/01/2008 18:00 7,3 C 92 % 1014,1 hPa 1,2 l/m 11,4 km/h (2 Bft) N-NE 0,00 h 0,025 mm 0 W/m 6,1 C 5,2 C 17,5 km/h (3 Bft)
04/01/2008 19:00 7,2 C 93 % 1014,8 hPa 0,4 l/m 11,0 km/h (2 Bft) N-NE 0,00 h 0,025 mm 0 W/m 6,2 C 5,1 C 17,2 km/h (3 Bft)
04/01/2008 20:00 7,2 C 93 % 1015,3 hPa 0,6 l/m 11,0 km/h (2 Bft) N-NE 0,00 h 0,025 mm 0 W/m 6,1 C 5,1 C 17,9 km/h (3 Bft)
04/01/2008 21:00 7,1 C 93 % 1015,2 hPa 0,0 l/m 13,9 km/h (3 Bft) N-NE 0,00 h 0,025 mm 0 W/m 6,1 C 4,5 C 20,5 km/h (4 Bft)
04/01/2008 22:00 7,7 C 91 % 1014,9 hPa 0,2 l/m 11,4 km/h (2 Bft) NE 0,00 h 0,025 mm 0 W/m 6,3 C 5,7 C 17,5 km/h (3 Bft)
04/01/2008 23:00 8,4 C 85 % 1014,8 hPa 0,0 l/m 12,4 km/h (3 Bft) N-NE 0,00 h 0,025 mm 0 W/m 6,0 C 6,3 C 18,3 km/h (3 Bft)
05/01/2008 00:00 8,9 C 80 % 1015,1 hPa 0,0 l/m 11,3 km/h (2 Bft) NE 0,00 h 0,025 mm 0 W/m 5,6 C 7,1 C 16,8 km/h (3 Bft)
05/01/2008 01:00 8,6 C 80 % 1015,4 hPa 0,0 l/m 8,2 km/h (2 Bft) NE 0,00 h 0,025 mm 0 W/m 5,3 C 7,4 C 12,1 km/h (2 Bft)
05/01/2008 02:00 7,7 C 84 % 1015,5 hPa 0,4 l/m 4,3 km/h (1 Bft) NE 0,00 h 0,025 mm 0 W/m 5,2 C 7,3 C 6,2 km/h (2 Bft)
05/01/2008 03:00 7,2 C 88 % 1015,5 hPa 0,0 l/m 3,9 km/h (1 Bft) N-NE 0,00 h 0,025 mm 0 W/m 5,4 C 6,8 C 5,7 km/h (1 Bft)
05/01/2008 04:00 7,2 C 89 % 1015,6 hPa 0,0 l/m 2,9 km/h (1 Bft) NE 0,00 h 0,025 mm 0 W/m 5,5 C 7,0 C 4,5 km/h (1 Bft)
05/01/2008 05:00 7,2 C 89 % 1015,4 hPa 0,0 l/m 4,6 km/h (1 Bft) NE 0,00 h 0,025 mm 0 W/m 5,5 C 6,6 C 6,3 km/h (2 Bft)
05/01/2008 06:00 7,5 C 90 % 1015,8 hPa 0,0 l/m 2,9 km/h (1 Bft) N-NE 0,00 h 0,025 mm 0 W/m 5,9 C 7,3 C 4,1 km/h (1 Bft)
05/01/2008 07:00 7,7 C 89 % 1016,3 hPa 0,0 l/m 1,0 km/h (0 Bft) N-NE 0,00 h 0,025 mm 0 W/m 6,0 C 7,7 C 2,0 km/h (1 Bft)
05/01/2008 08:00 8,0 C 88 % 1016,8 hPa 0,0 l/m 0,3 km/h (0 Bft) N-NE 0,00 h 0,000 mm 8 W/m 6,1 C 8,0 C 0,8 km/h (0 Bft)
05/01/2008 09:00 8,6 C 87 % 1017,2 hPa 0,0 l/m 1,3 km/h (1 Bft) N 0,00 h 0,000 mm 22 W/m 6,5 C 8,6 C 2,5 km/h (1 Bft)
05/01/2008 10:00 8,9 C 86 % 1017,8 hPa 0,2 l/m 0,8 km/h (0 Bft) N 0,00 h 0,025 mm 41 W/m 6,6 C 8,9 C 1,3 km/h (1 Bft)
05/01/2008 11:00 9,2 C 87 % 1018,1 hPa 0,0 l/m 3,6 km/h (1 Bft) O-NO 0,00 h 0,025 mm 53 W/m 7,0 C 9,0 C 5,5 km/h (1 Bft)
05/01/2008 12:00 9,8 C 87 % 1017,8 hPa 0,0 l/m 3,2 km/h (1 Bft) O-NO 0,00 h 0,025 mm 81 W/m 7,8 C 9,5 C 4,4 km/h (1 Bft)
05/01/2008 13:00 9,8 C 89 % 1017,7 hPa 0,0 l/m 0,0 km/h (0 Bft) O-NO 0,00 h 0,051 mm 60 W/m 8,1 C 9,8 C 0,2 km/h (0 Bft)
05/01/2008 14:00 9,8 C 90 % 1017,6 hPa 0,0 l/m 1,4 km/h (1 Bft) O-NO 0,00 h 0,025 mm 62 W/m 8,3 C 9,8 C 2,4 km/h (1 Bft)
05/01/2008 15:00 9,5 C 90 % 1017,8 hPa 0,0 l/m 3,7 km/h (1 Bft) O 0,00 h 0,025 mm 29 W/m 7,9 C 9,3 C 5,4 km/h (1 Bft)
05/01/2008 16:00 9,4 C 88 % 1017,8 hPa 0,0 l/m 6,4 km/h (2 Bft) O-SO 0,00 h 0,025 mm 13 W/m 7,4 C 8,7 C 8,7 km/h (2 Bft)
05/01/2008 17:00 9,2 C 86 % 1018,0 hPa 0,0 l/m 2,5 km/h (1 Bft) O-SO 0,00 h 0,025 mm 0 W/m 7,0 C 9,1 C 3,9 km/h (1 Bft)
05/01/2008 18:00 8,6 C 87 % 1018,1 hPa 0,0 l/m 0,5 km/h (0 Bft) O-SO 0,00 h 0,000 mm 0 W/m 6,5 C 8,6 C 1,0 km/h (0 Bft)
05/01/2008 19:00 8,7 C 87 % 1017,9 hPa 0,0 l/m 2,1 km/h (1 Bft) O-SO 0,00 h 0,025 mm 0 W/m 6,6 C 8,5 C 2,9 km/h (1 Bft)
05/01/2008 20:00 8,8 C 87 % 1018,0 hPa 0,0 l/m 4,9 km/h (1 Bft) O 0,00 h 0,025 mm 0 W/m 6,7 C 8,4 C 6,5 km/h (2 Bft)
05/01/2008 21:00 9,1 C 85 % 1017,9 hPa 0,2 l/m 5,5 km/h (1 Bft) O 0,00 h 0,025 mm 0 W/m 6,7 C 8,6 C 7,1 km/h (2 Bft)
05/01/2008 22:00 8,6 C 87 % 1017,3 hPa 0,0 l/m 4,4 km/h (1 Bft) O 0,00 h 0,025 mm 0 W/m 6,7 C 8,3 C 6,0 km/h (2 Bft)
05/01/2008 23:00 8,3 C 90 % 1017,2 hPa 2,2 l/m 4,8 km/h (1 Bft) O 0,00 h 0,025 mm 0 W/m 6,7 C 7,8 C 6,5 km/h (2 Bft)
06/01/2008 00:00 7,9 C 92 % 1016,7 hPa 2,4 l/m 2,1 km/h (1 Bft) NO 0,00 h 0,025 mm 0 W/m 6,6 C 7,9 C 3,2 km/h (1 Bft)
06/01/2008 01:00 7,8 C 92 % 1015,8 hPa 2,8 l/m 2,1 km/h (1 Bft) NO 0,00 h 0,000 mm 0 W/m 6,7 C 7,7 C 3,3 km/h (1 Bft)
06/01/2008 02:00 7,8 C 93 % 1015,1 hPa 2,0 l/m 1,7 km/h (1 Bft) NO 0,00 h 0,000 mm 0 W/m 6,7 C 7,7 C 2,8 km/h (1 Bft)
06/01/2008 03:00 7,9 C 94 % 1014,6 hPa 1,4 l/m 1,9 km/h (1 Bft) NO 0,00 h 0,000 mm 0 W/m 6,9 C 7,8 C 3,0 km/h (1 Bft)
06/01/2008 04:00 8,5 C 95 % 1013,4 hPa 0,4 l/m 10,6 km/h (2 Bft) O-SO 0,00 h 0,000 mm 0 W/m 7,7 C 6,9 C 14,7 km/h (3 Bft)
06/01/2008 05:00 8,4 C 95 % 1012,9 hPa 0,0 l/m 7,2 km/h (2 Bft) SO 0,00 h 0,025 mm 0 W/m 7,7 C 7,4 C 10,1 km/h (2 Bft)
06/01/2008 06:00 7,9 C 95 % 1012,0 hPa 0,0 l/m 1,1 km/h (1 Bft) NO 0,00 h 0,000 mm 0 W/m 7,2 C 7,9 C 2,1 km/h (1 Bft)
06/01/2008 07:00 7,2 C 95 % 1011,2 hPa 0,0 l/m 1,0 km/h (0 Bft) NO 0,00 h 0,000 mm 0 W/m 6,4 C 7,2 C 1,7 km/h (1 Bft)
06/01/2008 08:00 7,5 C 95 % 1010,7 hPa 0,0 l/m 3,8 km/h (1 Bft) NO 0,17 h 0,000 mm 30 W/m 6,8 C 7,1 C 5,4 km/h (1 Bft)
06/01/2008 09:00 8,2 C 96 % 1010,7 hPa 0,0 l/m 1,8 km/h (1 Bft) N 0,50 h 0,025 mm 112 W/m 7,6 C 8,1 C 3,3 km/h (1 Bft)
06/01/2008 10:00 9,8 C 95 % 1011,0 hPa 0,0 l/m 1,2 km/h (1 Bft) N 0,65 h 0,051 mm 207 W/m 9,0 C 9,8 C 2,4 km/h (1 Bft)
06/01/2008 11:00 11,5 C 89 % 1011,3 hPa 0,0 l/m 1,6 km/h (1 Bft) NE 1,00 h 0,102 mm 351 W/m 9,7 C 11,5 C 3,1 km/h (1 Bft)
06/01/2008 12:00 13,7 C 81 % 1011,4 hPa 0,0 l/m 3,5 km/h (1 Bft) NE 1,00 h 0,178 mm 378 W/m 10,5 C 13,7 C 5,3 km/h (1 Bft)
06/01/2008 13:00 14,6 C 75 % 1011,9 hPa 0,0 l/m 7,6 km/h (2 Bft) E 1,00 h 0,203 mm 354 W/m 10,1 C 14,6 C 11,9 km/h (2 Bft)
06/01/2008 14:00 13,1 C 79 % 1012,3 hPa 0,0 l/m 4,5 km/h (1 Bft) SE 1,00 h 0,203 mm 299 W/m 9,6 C 13,1 C 8,0 km/h (2 Bft)
06/01/2008 15:00 12,3 C 83 % 1012,8 hPa 0,0 l/m 4,3 km/h (1 Bft) S-SE 1,00 h 0,152 mm 201 W/m 9,5 C 12,3 C 7,4 km/h (2 Bft)
06/01/2008 16:00 11,7 C 85 % 1013,4 hPa 0,0 l/m 3,0 km/h (1 Bft) S-SE 0,98 h 0,102 mm 65 W/m 9,1 C 11,7 C 5,4 km/h (1 Bft)
06/01/2008 17:00 10,0 C 89 % 1013,9 hPa 0,0 l/m 2,9 km/h (1 Bft) S-SE 0,00 h 0,051 mm 6 W/m 8,2 C 10,0 C 4,6 km/h (1 Bft)
06/01/2008 18:00 9,4 C 90 % 1014,6 hPa 0,0 l/m 2,3 km/h (1 Bft) S-SE 0,00 h 0,000 mm 0 W/m 8,0 C 9,4 C 3,6 km/h (1 Bft)
06/01/2008 19:00 9,1 C 92 % 1015,0 hPa 0,0 l/m 3,8 km/h (1 Bft) O 0,00 h 0,025 mm 0 W/m 7,9 C 9,0 C 5,1 km/h (1 Bft)
06/01/2008 20:00 9,1 C 93 % 1015,4 hPa 0,0 l/m 4,5 km/h (1 Bft) O-SO 0,00 h 0,025 mm 0 W/m 8,0 C 8,8 C 5,7 km/h (1 Bft)
06/01/2008 21:00 8,7 C 93 % 1015,8 hPa 0,0 l/m 3,8 km/h (1 Bft) O-SO 0,00 h 0,025 mm 0 W/m 7,7 C 8,5 C 5,1 km/h (1 Bft)
06/01/2008 22:00 8,6 C 94 % 1016,0 hPa 0,2 l/m 2,0 km/h (1 Bft) O-SO 0,00 h 0,000 mm 0 W/m 7,7 C 8,6 C 3,2 km/h (1 Bft)
06/01/2008 23:00 8,2 C 94 % 1016,2 hPa 0,0 l/m 2,3 km/h (1 Bft) O-SO 0,00 h 0,000 mm 0 W/m 7,3 C 8,2 C 3,7 km/h (1 Bft)
Min-Date _ 03/01/08 31/12/07 03/01/08 - 31/12/07 - - - - 31/12/07 03/01/08 31/12/07
_ Min-Heure 01:48 12:47 15:30 - 06:37 - - - - 08:36 02:36 06:40
Minimum _ 2,8 C 29 % 1006,9 hPa - 0,0 km/h (0 Bft) - - - - -7,1 C -1,1 C 0,0 km/h (0 Bft)
Max-Date _ 06/01/08 06/01/08 31/12/07 04/01/08 02/01/08 - 31/12/07 31/12/07 01/01/08 06/01/08 06/01/08 02/01/08
_ Max-Heure 13:16 05:11 10:30 04:08 17:20 - 08:17 14:00 14:25 12:43 13:16 15:23
Maximum _ 15,7 C 100 % 1020,9 hPa 3,0 l/m 30,6 km/h
E-NE (5 Bft)
- 0,02 h 0,279 mm 429 W/m 11,3 C 15,7 C 40,2 km/h
E-NE (6 Bft)
Moyenne _ 7,6 C 76 % 1014,8 hPa #56,8 l/m 7,5 km/h (2 Bft) N-NE #21:45 h #8,407 mm 111 W/m 3,2 C 6,4 C 11,3 km/h (2 Bft)
Roquefort les pins